Time;durP1;ratioP1;P1;durP2;ratioP2;P2;SDS_P1;SDS_P2;PMS_P1;PMS_P2;Temp;Humidity;BMP_temperature;BMP_pressure;BME280_temperature;BME280_humidity;BME280_pressure;Samples;Min_cycle;Max_cycle;Signal;HPM_P1;HPM_P2
2021/07/02 00:01:19;;;;;;;24.92;11.70;;;13.00;99.90;;;;;;5099749;28;20031;-80
2021/07/02 00:03:45;;;;;;;23.17;12.90;;;13.00;99.90;;;;;;5117089;28;20016;-80
2021/07/02 00:06:11;;;;;;;23.20;12.80;;;13.00;99.90;;;;;;5102064;28;20034;-81
2021/07/02 00:08:36;;;;;;;20.60;11.52;;;12.90;99.90;;;;;;5101087;28;20020;-81
2021/07/02 00:11:02;;;;;;;19.75;12.85;;;12.90;99.90;;;;;;5102431;28;20051;-79
2021/07/02 00:13:28;;;;;;;26.30;13.00;;;12.90;99.90;;;;;;5080943;28;20040;-80
2021/07/02 00:15:53;;;;;;;16.67;11.10;;;12.90;99.90;;;;;;5082903;28;20033;-80
2021/07/02 00:18:19;;;;;;;30.95;13.80;;;12.80;99.90;;;;;;5081328;28;20039;-79
2021/07/02 00:20:45;;;;;;;21.70;11.95;;;12.80;99.90;;;;;;5080493;28;20074;-80
2021/07/02 00:23:10;;;;;;;22.08;13.18;;;12.80;99.90;;;;;;5081550;28;20036;-81
2021/07/02 00:25:39;;;;;;;26.25;14.05;;;12.80;99.90;;;;;;5064875;28;20394;-81
2021/07/02 00:28:06;;;;;;;20.38;12.63;;;12.80;99.90;;;;;;5064968;28;20025;-81
2021/07/02 00:30:33;;;;;;;26.25;13.15;;;12.80;99.90;;;;;;5078133;28;20024;-80
2021/07/02 00:32:59;;;;;;;25.90;11.90;;;12.80;99.90;;;;;;5103716;28;20017;-80
2021/07/02 00:35:25;;;;;;;23.52;11.45;;;12.70;99.90;;;;;;5084217;28;20028;-81
2021/07/02 00:37:50;;;;;;;15.27;10.48;;;12.60;99.90;;;;;;5101405;28;20032;-81
2021/07/02 00:40:16;;;;;;;16.05;10.45;;;12.60;99.90;;;;;;5082674;28;20474;-80
2021/07/02 00:42:42;;;;;;;17.15;10.13;;;12.60;99.90;;;;;;5099952;28;20020;-80
2021/07/02 00:45:08;;;;;;;23.20;11.50;;;12.50;99.90;;;;;;5101241;28;20432;-81
2021/07/02 00:47:34;;;;;;;19.52;10.52;;;12.60;99.90;;;;;;5083436;28;20050;-80
2021/07/02 00:49:59;;;;;;;19.48;11.40;;;12.80;99.90;;;;;;5082588;28;20032;-81
2021/07/02 00:52:25;;;;;;;24.10;12.13;;;12.80;99.90;;;;;;5101070;28;20453;-81
2021/07/02 00:54:52;;;;;;;25.80;11.63;;;12.80;99.90;;;;;;5098466;28;20456;-81
2021/07/02 00:57:18;;;;;;;25.92;12.35;;;12.70;99.90;;;;;;5080447;28;20032;-79
2021/07/02 00:59:44;;;;;;;20.98;10.80;;;12.70;99.90;;;;;;5098173;28;20046;-81
2021/07/02 01:02:10;;;;;;;23.75;11.68;;;12.60;99.90;;;;;;5099297;28;20034;-81
2021/07/02 01:04:36;;;;;;;24.58;12.38;;;12.50;99.90;;;;;;5099735;28;20431;-79
2021/07/02 01:07:03;;;;;;;20.30;12.27;;;12.60;99.90;;;;;;5100712;28;20024;-80
2021/07/02 01:09:29;;;;;;;23.77;12.95;;;12.60;99.90;;;;;;5081766;28;20045;-79
2021/07/02 01:11:56;;;;;;;23.10;11.90;;;12.60;99.90;;;;;;5093660;28;20413;-77
2021/07/02 01:14:22;;;;;;;25.27;11.70;;;12.60;99.90;;;;;;5075440;28;20031;-77
2021/07/02 01:16:48;;;;;;;15.88;10.60;;;12.50;99.90;;;;;;5093552;28;20028;-77
2021/07/02 01:19:14;;;;;;;25.60;12.02;;;12.40;99.90;;;;;;5075359;28;20470;-77
2021/07/02 01:21:40;;;;;;;21.13;10.80;;;12.30;99.90;;;;;;5074459;28;20016;-77
2021/07/02 01:24:06;;;;;;;20.67;10.57;;;12.30;99.90;;;;;;5088238;28;20134;-76
2021/07/02 01:26:32;;;;;;;19.67;10.40;;;12.20;99.90;;;;;;5072993;28;20024;-77
2021/07/02 01:28:59;;;;;;;21.02;11.18;;;12.20;99.90;;;;;;5055093;28;20486;-78
2021/07/02 01:31:25;;;;;;;19.58;11.63;;;12.20;99.90;;;;;;5072844;28;20030;-77
2021/07/02 01:33:51;;;;;;;24.08;11.55;;;12.20;99.90;;;;;;5073087;28;20524;-77
2021/07/02 01:36:20;;;;;;;19.60;11.10;;;12.20;99.90;;;;;;5072789;28;20036;-77
2021/07/02 01:38:46;;;;;;;20.85;11.55;;;12.10;99.90;;;;;;5055326;28;20051;-78
2021/07/02 01:41:12;;;;;;;25.52;12.15;;;12.10;99.90;;;;;;5073333;28;20025;-77
2021/07/02 01:43:37;;;;;;;21.70;12.45;;;12.10;99.90;;;;;;5056505;28;20042;-76
2021/07/02 01:46:03;;;;;;;25.10;12.38;;;12.10;99.90;;;;;;5078396;28;20088;-78
2021/07/02 01:48:29;;;;;;;26.23;12.10;;;12.10;99.90;;;;;;5061450;28;20097;-78
2021/07/02 01:50:56;;;;;;;27.38;11.88;;;12.00;99.90;;;;;;5073924;28;20029;-79
2021/07/02 01:53:22;;;;;;;25.02;11.38;;;12.00;99.90;;;;;;5055444;28;20044;-77
2021/07/02 01:55:47;;;;;;;20.35;11.75;;;11.90;99.90;;;;;;5093203;28;20028;-79
2021/07/02 01:58:13;;;;;;;21.90;11.20;;;11.80;99.90;;;;;;5096524;28;20024;-78
2021/07/02 02:00:39;;;;;;;23.83;11.52;;;11.80;99.90;;;;;;5081211;28;20047;-78
2021/07/02 02:03:04;;;;;;;24.70;12.07;;;11.80;99.90;;;;;;5103203;28;20532;-79
2021/07/02 02:05:30;;;;;;;24.95;13.13;;;11.90;99.90;;;;;;5117189;28;20025;-79
2021/07/02 02:07:56;;;;;;;32.53;14.57;;;12.00;99.90;;;;;;5088716;28;20031;-77
2021/07/02 02:10:22;;;;;;;35.90;14.32;;;11.90;99.90;;;;;;5094865;28;20019;-79
2021/07/02 02:12:48;;;;;;;25.80;13.70;;;11.90;99.90;;;;;;5094567;28;20382;-77
2021/07/02 02:15:14;;;;;;;27.10;14.02;;;11.90;99.90;;;;;;5075897;28;20028;-77
2021/07/02 02:17:40;;;;;;;30.17;15.77;;;11.80;99.90;;;;;;5075270;28;20039;-78
2021/07/02 02:20:07;;;;;;;30.75;14.90;;;11.90;99.90;;;;;;5092687;28;20480;-78
2021/07/02 02:22:33;;;;;;;31.45;14.07;;;11.90;99.90;;;;;;5153629;22;20098;-76
2021/07/02 02:24:59;;;;;;;28.00;13.30;;;11.80;99.90;;;;;;5086795;28;20111;-76
2021/07/02 02:27:25;;;;;;;26.40;13.23;;;11.70;99.90;;;;;;5071712;28;20518;-76
2021/07/02 02:29:51;;;;;;;32.47;14.52;;;11.70;99.90;;;;;;5081808;28;20481;-76
2021/07/02 02:32:18;;;;;;;25.02;13.50;;;11.60;99.90;;;;;;5090468;28;20036;-76
2021/07/02 02:34:43;;;;;;;36.85;13.70;;;11.60;99.90;;;;;;5090810;28;20016;-76
2021/07/02 02:37:09;;;;;;;34.78;14.60;;;11.60;99.90;;;;;;5092342;28;20090;-76
2021/07/02 02:39:35;;;;;;;22.60;12.48;;;11.60;99.90;;;;;;5091764;28;20370;-76
2021/07/02 02:42:01;;;;;;;27.45;12.32;;;11.60;99.90;;;;;;5093969;28;20092;-77
2021/07/02 02:44:26;;;;;;;33.08;13.77;;;11.50;99.90;;;;;;5092971;28;20020;-76
2021/07/02 02:46:52;;;;;;;26.98;13.05;;;11.50;99.90;;;;;;5093254;28;20039;-76
2021/07/02 02:49:18;;;;;;;28.95;12.95;;;11.60;99.90;;;;;;5092938;28;20413;-75
2021/07/02 02:51:43;;;;;;;32.35;13.45;;;11.50;99.90;;;;;;5090846;28;20034;-75
2021/07/02 02:54:09;;;;;;;27.17;13.10;;;11.60;99.90;;;;;;5093755;28;20023;-76
2021/07/02 02:56:35;;;;;;;28.88;13.90;;;11.50;99.90;;;;;;5092447;28;20031;-75
2021/07/02 02:59:01;;;;;;;28.02;13.65;;;11.60;99.90;;;;;;5092524;28;20021;-76
2021/07/02 03:01:26;;;;;;;22.45;12.43;;;11.50;99.90;;;;;;5091200;28;20020;-75
2021/07/02 03:03:52;;;;;;;26.90;14.05;;;11.50;99.90;;;;;;5090956;28;20020;-75
2021/07/02 03:06:18;;;;;;;32.33;14.02;;;11.50;99.90;;;;;;5091404;28;20077;-74
2021/07/02 03:08:44;;;;;;;33.35;14.52;;;11.40;99.90;;;;;;5091596;28;20020;-76
2021/07/02 03:11:10;;;;;;;32.10;13.73;;;11.50;99.90;;;;;;5094818;28;20397;-76
2021/07/02 03:13:35;;;;;;;30.13;12.98;;;11.40;99.90;;;;;;5095305;28;20016;-75
2021/07/02 03:16:01;;;;;;;27.27;13.68;;;11.40;99.90;;;;;;5096588;28;20228;-76
2021/07/02 03:18:26;;;;;;;29.52;13.10;;;11.30;99.90;;;;;;5096605;28;20020;-75
2021/07/02 03:20:52;;;;;;;28.88;13.20;;;11.30;99.90;;;;;;5096116;28;20027;-75
2021/07/02 03:23:18;;;;;;;27.08;13.52;;;11.30;99.90;;;;;;5086893;28;20409;-76
2021/07/02 03:25:43;;;;;;;32.42;14.43;;;11.30;99.90;;;;;;5056790;28;20025;-76
2021/07/02 03:28:09;;;;;;;36.40;15.80;;;11.30;99.90;;;;;;5074469;28;20475;-75
2021/07/02 03:30:35;;;;;;;32.08;15.05;;;11.30;99.90;;;;;;5073984;28;20013;-76
2021/07/02 03:33:00;;;;;;;33.40;13.80;;;11.30;99.90;;;;;;5074555;28;20021;-76
2021/07/02 03:35:26;;;;;;;28.92;15.10;;;11.30;99.90;;;;;;5074657;28;20028;-76
2021/07/02 03:37:52;;;;;;;31.02;14.63;;;11.20;99.90;;;;;;5075724;28;20074;-74
2021/07/02 03:40:17;;;;;;;28.33;14.48;;;11.20;99.90;;;;;;5075765;28;20478;-73
2021/07/02 03:42:43;;;;;;;33.10;15.13;;;11.20;99.90;;;;;;5074537;28;20070;-74
2021/07/02 03:45:09;;;;;;;30.83;14.35;;;11.20;99.90;;;;;;5074695;28;20029;-73
2021/07/02 03:47:35;;;;;;;27.27;13.60;;;11.20;99.90;;;;;;5074688;28;20021;-74
2021/07/02 03:50:01;;;;;;;28.25;12.85;;;11.20;99.90;;;;;;5054307;28;20046;-74
2021/07/02 03:52:28;;;;;;;31.40;14.15;;;11.20;99.90;;;;;;5065208;28;20662;-74
2021/07/02 03:54:54;;;;;;;27.63;14.02;;;11.20;99.90;;;;;;5072900;28;20500;-74
2021/07/02 03:57:20;;;;;;;30.58;14.70;;;11.30;99.90;;;;;;5073097;28;20058;-74
2021/07/02 03:59:48;;;;;;;37.55;14.20;;;11.30;99.90;;;;;;5072855;28;20106;-72
2021/07/02 04:02:14;;;;;;;25.58;12.75;;;11.30;99.90;;;;;;5073083;28;20016;-73
2021/07/02 04:04:41;;;;;;;26.67;12.38;;;11.20;99.90;;;;;;5073696;28;20364;-74
2021/07/02 04:07:09;;;;;;;22.70;12.38;;;11.30;99.90;;;;;;5073818;28;20029;-74
2021/07/02 04:09:35;;;;;;;23.08;12.27;;;11.30;99.90;;;;;;5064083;28;20706;-73
2021/07/02 04:12:01;;;;;;;23.58;12.15;;;11.30;99.90;;;;;;5052516;28;20471;-74
2021/07/02 04:14:28;;;;;;;23.00;11.30;;;11.30;99.90;;;;;;5065261;28;20442;-72
2021/07/02 04:16:55;;;;;;;22.52;12.23;;;11.40;99.90;;;;;;5073082;28;20089;-73
2021/07/02 04:19:20;;;;;;;22.30;12.07;;;11.30;99.90;;;;;;5072212;28;20028;-75
2021/07/02 04:21:47;;;;;;;26.10;12.38;;;11.30;99.90;;;;;;5072602;28;20028;-74
2021/07/02 04:24:13;;;;;;;22.00;11.77;;;11.40;99.90;;;;;;5072490;28;20478;-74
2021/07/02 04:26:39;;;;;;;28.38;13.95;;;11.50;99.90;;;;;;5073229;28;20737;-73
2021/07/02 04:29:04;;;;;;;28.20;14.93;;;11.50;99.90;;;;;;5072824;28;20021;-72
2021/07/02 04:31:30;;;;;;;24.48;12.70;;;11.60;99.90;;;;;;5071876;28;20016;-75
2021/07/02 04:33:56;;;;;;;23.30;12.23;;;11.50;99.90;;;;;;5072964;28;20051;-74
2021/07/02 04:36:21;;;;;;;21.20;12.52;;;11.70;99.90;;;;;;5073277;28;20085;-72
2021/07/02 04:38:47;;;;;;;22.42;11.65;;;11.70;99.90;;;;;;5073142;28;20020;-73
2021/07/02 04:41:13;;;;;;;24.10;12.30;;;11.70;99.90;;;;;;5072343;28;20021;-72
2021/07/02 04:43:39;;;;;;;19.40;11.73;;;11.70;99.90;;;;;;5072437;28;20063;-74
2021/07/02 04:46:04;;;;;;;17.08;11.13;;;11.70;99.90;;;;;;5072768;28;20036;-74
2021/07/02 04:48:30;;;;;;;21.92;11.43;;;11.70;99.90;;;;;;5072576;28;20056;-73
2021/07/02 04:50:56;;;;;;;20.13;10.35;;;11.80;99.90;;;;;;5072098;28;20020;-74
2021/07/02 04:53:21;;;;;;;19.13;10.55;;;11.90;99.90;;;;;;5072214;28;20529;-74
2021/07/02 04:55:47;;;;;;;23.20;10.93;;;11.80;99.90;;;;;;5054263;28;20460;-75
2021/07/02 04:58:13;;;;;;;15.05;9.82;;;11.80;99.90;;;;;;5072529;28;20025;-75
2021/07/02 05:00:39;;;;;;;17.52;9.95;;;11.80;99.90;;;;;;5071353;28;20036;-74
2021/07/02 05:03:05;;;;;;;18.52;10.85;;;11.80;99.90;;;;;;5072007;28;20021;-74
2021/07/02 05:05:32;;;;;;;18.38;9.40;;;11.80;99.90;;;;;;5072422;28;20058;-74
2021/07/02 05:07:59;;;;;;;14.70;9.73;;;11.70;99.90;;;;;;5054156;28;20045;-75
2021/07/02 05:10:24;;;;;;;15.02;10.15;;;11.70;99.90;;;;;;5071493;28;20079;-74
2021/07/02 05:12:50;;;;;;;15.63;10.45;;;11.80;99.90;;;;;;5071544;28;20466;-74
2021/07/02 05:15:16;;;;;;;14.23;8.90;;;11.90;99.90;;;;;;5072222;28;20032;-74
2021/07/02 05:17:43;;;;;;;16.58;11.10;;;12.00;99.90;;;;;;5054130;28;20372;-74
2021/07/02 05:20:09;;;;;;;25.45;11.77;;;12.10;99.90;;;;;;5071271;28;20403;-70
2021/07/02 05:22:35;;;;;;;18.60;10.43;;;12.30;99.90;;;;;;5071595;28;20398;-70
2021/07/02 05:25:00;;;;;;;16.85;10.18;;;12.60;99.90;;;;;;5071642;28;20025;-70
2021/07/02 05:27:26;;;;;;;18.70;9.68;;;12.80;99.90;;;;;;5072074;28;20047;-69
2021/07/02 05:29:52;;;;;;;15.02;9.82;;;12.80;99.90;;;;;;5070602;28;20394;-70
2021/07/02 05:32:17;;;;;;;16.83;9.90;;;12.90;99.90;;;;;;5066394;28;20025;-74
2021/07/02 05:34:43;;;;;;;21.00;9.32;;;13.00;99.90;;;;;;5060544;28;20096;-74
2021/07/02 05:37:08;;;;;;;14.88;10.07;;;13.00;99.90;;;;;;5058169;28;20021;-73
2021/07/02 05:39:34;;;;;;;15.27;9.90;;;12.90;99.90;;;;;;5064422;28;20036;-74
2021/07/02 05:42:00;;;;;;;17.95;10.98;;;13.00;99.90;;;;;;5051979;28;20021;-73
2021/07/02 05:44:26;;;;;;;17.17;10.07;;;13.00;99.90;;;;;;5051766;28;20108;-73
2021/07/02 05:46:52;;;;;;;13.25;10.07;;;13.00;99.90;;;;;;5057663;28;20568;-74
2021/07/02 05:49:18;;;;;;;14.02;9.73;;;13.10;99.90;;;;;;5071801;28;20020;-74
2021/07/02 05:51:44;;;;;;;15.73;10.98;;;13.20;99.90;;;;;;5071091;28;20023;-75
2021/07/02 05:54:09;;;;;;;16.55;10.15;;;13.30;99.90;;;;;;5071441;28;20028;-74
2021/07/02 05:56:35;;;;;;;14.38;10.00;;;13.40;99.90;;;;;;5071300;28;20154;-73
2021/07/02 05:59:01;;;;;;;14.52;10.10;;;13.50;99.90;;;;;;5071422;28;20020;-73
2021/07/02 06:01:28;;;;;;;13.70;9.75;;;13.60;99.90;;;;;;5068067;28;20021;-74
2021/07/02 06:03:54;;;;;;;17.80;9.82;;;13.70;99.90;;;;;;5051365;28;20067;-73
2021/07/02 06:06:20;;;;;;;15.82;9.10;;;13.70;99.90;;;;;;5071766;28;20044;-74
2021/07/02 06:08:47;;;;;;;14.27;10.02;;;13.80;99.90;;;;;;5075599;28;20432;-75
2021/07/02 06:11:13;;;;;;;15.65;9.63;;;14.00;99.90;;;;;;5053954;28;20057;-76
2021/07/02 06:13:39;;;;;;;16.48;9.50;;;14.00;99.90;;;;;;5064884;28;20064;-75
2021/07/02 06:16:05;;;;;;;13.20;9.23;;;14.00;99.90;;;;;;5071219;28;20035;-76
2021/07/02 06:18:31;;;;;;;14.35;9.40;;;14.00;99.90;;;;;;5071086;28;20021;-76
2021/07/02 06:20:57;;;;;;;16.95;9.32;;;14.20;99.90;;;;;;5070776;28;20025;-76
2021/07/02 06:23:24;;;;;;;15.57;9.23;;;14.40;99.90;;;;;;5071241;28;20658;-76
2021/07/02 06:25:50;;;;;;;12.15;8.98;;;14.40;99.90;;;;;;5071351;28;20021;-75
2021/07/02 06:28:16;;;;;;;13.18;8.50;;;14.40;99.90;;;;;;5070955;28;20378;-74
2021/07/02 06:30:43;;;;;;;11.27;8.32;;;14.50;99.90;;;;;;5070876;28;20025;-75
2021/07/02 06:33:10;;;;;;;10.88;7.93;;;14.50;99.90;;;;;;5070487;28;20096;-75
2021/07/02 06:35:36;;;;;;;12.45;8.13;;;14.50;99.90;;;;;;5053046;28;20029;-74
2021/07/02 06:38:01;;;;;;;10.60;8.15;;;14.60;99.90;;;;;;5071743;28;20025;-74
2021/07/02 06:40:27;;;;;;;9.88;7.85;;;14.60;99.90;;;;;;5070731;28;20028;-74
2021/07/02 06:42:53;;;;;;;10.88;8.48;;;14.80;99.90;;;;;;5072430;28;20344;-74
2021/07/02 06:45:19;;;;;;;10.70;7.95;;;15.00;99.90;;;;;;5077988;28;20500;-73
2021/07/02 06:47:52;;;;;;;14.40;8.05;;;15.10;99.90;;;;;;5077608;28;20028;-73
2021/07/02 06:50:18;;;;;;;12.05;7.70;;;15.30;99.90;;;;;;5059228;28;20122;-76
2021/07/02 06:52:44;;;;;;;9.25;7.05;;;15.40;99.90;;;;;;5059982;28;20040;-74
2021/07/02 06:55:10;;;;;;;8.52;6.65;;;15.50;99.90;;;;;;5077627;28;20024;-75
2021/07/02 06:57:36;;;;;;;11.52;7.10;;;15.70;99.90;;;;;;5077692;28;20029;-75
2021/07/02 07:00:03;;;;;;;13.40;7.82;;;15.80;99.90;;;;;;5059242;28;20554;-75
2021/07/02 07:02:29;;;;;;;11.82;7.45;;;15.80;99.90;;;;;;5065036;28;20031;-75
2021/07/02 07:04:55;;;;;;;11.30;7.40;;;15.90;99.90;;;;;;5079036;28;20394;-75
2021/07/02 07:07:21;;;;;;;9.05;7.18;;;15.90;99.90;;;;;;5078694;28;20509;-75
2021/07/02 07:09:47;;;;;;;12.07;8.18;;;16.20;99.90;;;;;;5077296;28;20032;-71
2021/07/02 07:12:12;;;;;;;10.85;6.97;;;16.50;99.90;;;;;;5060122;28;20078;-73
2021/07/02 07:14:38;;;;;;;10.93;7.38;;;16.90;99.90;;;;;;5078547;28;20494;-74
2021/07/02 07:17:06;;;;;;;8.25;6.88;;;16.90;99.90;;;;;;5077761;28;20201;-74
2021/07/02 07:19:33;;;;;;;10.05;7.45;;;17.20;99.90;;;;;;5077367;28;20020;-74
2021/07/02 07:21:58;;;;;;;9.10;7.43;;;17.40;99.90;;;;;;5077442;28;20017;-74
2021/07/02 07:24:24;;;;;;;10.23;7.18;;;17.30;99.90;;;;;;5098539;28;20031;-74
2021/07/02 07:26:50;;;;;;;8.93;6.55;;;17.40;99.90;;;;;;5101048;28;20085;-75
2021/07/02 07:29:16;;;;;;;9.25;6.78;;;17.50;99.90;;;;;;5103935;28;20023;-74
2021/07/02 07:31:41;;;;;;;7.80;7.00;;;17.80;99.90;;;;;;5103986;28;20031;-75
2021/07/02 07:34:07;;;;;;;10.40;6.13;;;17.80;99.90;;;;;;5104311;28;20019;-74
2021/07/02 07:36:36;;;;;;;13.30;6.50;;;17.80;99.90;;;;;;5105033;28;20110;-75
2021/07/02 07:39:03;;;;;;;9.52;5.72;;;17.80;99.90;;;;;;5099088;28;20016;-73
2021/07/02 07:41:28;;;;;;;6.47;5.82;;;17.70;99.90;;;;;;5097205;28;20131;-73
2021/07/02 07:43:54;;;;;;;7.07;6.28;;;17.60;99.90;;;;;;5097736;28;20091;-74
2021/07/02 07:46:20;;;;;;;8.95;6.20;;;17.80;99.90;;;;;;5096503;28;20035;-74
2021/07/02 07:48:46;;;;;;;11.23;7.03;;;18.00;99.90;;;;;;5097230;28;20020;-75
2021/07/02 07:51:18;;;;;;;9.38;6.13;;;18.30;99.90;;;;;;5095639;28;20393;-74
2021/07/02 07:53:43;;;;;;;9.23;6.43;;;18.40;99.90;;;;;;5097272;28;20024;-76
2021/07/02 07:56:09;;;;;;;12.80;6.97;;;18.50;99.90;;;;;;5093369;28;20038;-76
2021/07/02 07:58:35;;;;;;;7.70;5.70;;;18.50;99.90;;;;;;5094514;28;20489;-77
2021/07/02 08:01:01;;;;;;;9.20;6.38;;;18.70;99.90;;;;;;5096024;28;20052;-76
2021/07/02 08:03:26;;;;;;;7.03;6.32;;;18.80;99.90;;;;;;5098126;28;20024;-77
2021/07/02 08:05:52;;;;;;;6.72;6.03;;;19.00;99.90;;;;;;5097878;28;20044;-74
2021/07/02 08:08:17;;;;;;;11.00;5.75;;;18.80;99.90;;;;;;5096489;28;20024;-74
2021/07/02 08:10:43;;;;;;;6.65;5.10;;;18.70;99.90;;;;;;5093897;28;20020;-72
2021/07/02 08:13:09;;;;;;;7.20;5.70;;;18.60;99.90;;;;;;5097777;28;20019;-77
2021/07/02 08:15:35;;;;;;;8.35;5.43;;;18.90;99.90;;;;;;5096435;28;20024;-76
2021/07/02 08:18:01;;;;;;;7.13;5.53;;;19.20;99.90;;;;;;5097127;28;20024;-76
2021/07/02 08:20:27;;;;;;;6.78;5.28;;;18.80;99.90;;;;;;5094571;28;20158;-75
2021/07/02 08:22:52;;;;;;;5.93;5.22;;;18.50;99.90;;;;;;5090367;28;20020;-75
2021/07/02 08:25:18;;;;;;;5.78;5.10;;;18.70;99.90;;;;;;5055296;28;20021;-75
2021/07/02 08:30:28;;;;;;;9.32;5.20;;;19.10;99.90;;;;;;5071346;22;20044;-75
2021/07/02 08:32:54;;;;;;;7.75;5.50;;;19.30;99.90;;;;;;5013239;28;20386;-77
2021/07/02 08:35:23;;;;;;;5.70;5.13;;;19.50;99.90;;;;;;4999576;28;20026;-77
2021/07/02 08:37:52;;;;;;;6.80;5.25;;;19.30;99.90;;;;;;4999595;28;20117;-76
2021/07/02 08:40:22;;;;;;;5.78;5.28;;;20.10;99.90;;;;;;5003224;28;20042;-77
2021/07/02 08:42:50;;;;;;;5.70;5.20;;;20.60;99.90;;;;;;4978976;28;20479;-74
2021/07/02 08:45:16;;;;;;;5.78;5.20;;;20.60;99.90;;;;;;4995122;28;20026;-75
2021/07/02 08:47:43;;;;;;;7.95;5.70;;;19.90;99.90;;;;;;4996899;28;20470;-76
2021/07/02 08:50:09;;;;;;;5.93;5.32;;;19.40;99.90;;;;;;4976104;28;20034;-75
2021/07/02 08:52:38;;;;;;;6.35;5.47;;;20.00;99.90;;;;;;4992003;28;20505;-76
2021/07/02 08:55:07;;;;;;;5.90;4.95;;;20.70;99.90;;;;;;4991782;28;20027;-76
2021/07/02 08:57:32;;;;;;;5.70;4.78;;;20.40;99.90;;;;;;4991902;28;20038;-74
2021/07/02 09:00:00;;;;;;;4.80;4.32;;;21.40;99.90;;;;;;5007248;28;20030;-74
2021/07/02 09:02:28;;;;;;;4.53;4.13;;;22.10;99.90;;;;;;5010620;28;20392;-74
2021/07/02 09:04:54;;;;;;;6.00;4.13;;;21.80;99.90;;;;;;5010615;28;20108;-76
2021/07/02 09:07:19;;;;;;;5.93;4.07;;;22.20;99.90;;;;;;5010979;28;20060;-75
2021/07/02 09:09:49;;;;;;;4.32;3.85;;;22.00;99.90;;;;;;4993769;28;20586;-75
2021/07/02 09:12:17;;;;;;;4.15;3.75;;;21.90;99.90;;;;;;5012667;28;20038;-75
2021/07/02 09:15:04;;;;;;;4.90;4.40;;;21.30;99.90;;;;;;5013345;28;20028;-75
2021/07/02 09:17:32;;;;;;;4.53;3.88;;;20.90;99.90;;;;;;5010813;28;20048;-74
2021/07/02 09:20:07;;;;;;;4.18;3.85;;;20.50;99.90;;;;;;5011004;28;20631;-75
2021/07/02 09:22:50;;;;;;;5.78;3.88;;;20.80;99.90;;;;;;5013539;28;20025;-75
2021/07/02 09:25:21;;;;;;;8.93;4.00;;;21.10;99.90;;;;;;5014082;28;20030;-75
2021/07/02 09:27:47;;;;;;;6.57;3.65;;;21.90;99.90;;;;;;5017848;28;20050;-78
2021/07/02 09:30:18;;;;;;;10.80;4.40;;;22.60;99.90;;;;;;5016929;28;20491;-75
2021/07/02 09:33:04;;;;;;;3.85;3.55;;;23.10;99.40;;;;;;5019000;28;20514;-76
2021/07/02 09:35:37;;;;;;;4.00;3.70;;;22.00;98.60;;;;;;5014709;28;20037;-77
2021/07/02 09:38:04;;;;;;;4.18;3.55;;;21.70;99.70;;;;;;4994024;28;20029;-74
2021/07/02 09:40:32;;;;;;;5.43;3.67;;;22.60;99.10;;;;;;4996530;28;20475;-76
2021/07/02 09:43:07;;;;;;;5.53;3.20;;;22.30;97.60;;;;;;4997161;28;20178;-76
2021/07/02 09:45:35;;;;;;;5.13;3.33;;;21.50;97.40;;;;;;5016437;28;20022;-76
2021/07/02 09:48:10;;;;;;;3.60;3.30;;;21.70;98.30;;;;;;5016315;28;20053;-75
2021/07/02 09:50:38;;;;;;;3.50;3.22;;;22.40;97.90;;;;;;4999380;28;20094;-75
2021/07/02 09:53:08;;;;;;;7.05;3.42;;;23.40;97.10;;;;;;5015509;28;20050;-74
2021/07/02 09:55:46;;;;;;;4.88;4.15;;;23.30;95.40;;;;;;5021156;28;20060;-75
2021/07/02 09:58:17;;;;;;;4.20;3.90;;;22.70;95.10;;;;;;5021542;28;20024;-74
2021/07/02 10:00:46;;;;;;;4.87;4.10;;;22.60;96.40;;;;;;4994807;28;20018;-77
2021/07/02 10:03:13;;;;;;;4.50;3.53;;;21.10;97.80;;;;;;4991098;28;20022;-77
2021/07/02 10:05:48;;;;;;;4.03;3.63;;;21.30;98.20;;;;;;4973999;28;20026;-77
2021/07/02 10:08:14;;;;;;;4.65;3.92;;;22.10;96.50;;;;;;5011263;28;20018;-78
2021/07/02 10:10:40;;;;;;;5.55;4.00;;;22.40;97.70;;;;;;5009924;28;20036;-76
2021/07/02 10:13:06;;;;;;;3.92;3.60;;;22.80;94.50;;;;;;5010413;28;20021;-78
2021/07/02 10:15:33;;;;;;;4.20;3.53;;;22.40;95.50;;;;;;5010060;28;20022;-77
2021/07/02 10:18:00;;;;;;;5.22;3.33;;;22.90;94.60;;;;;;5008696;28;20033;-75
2021/07/02 10:20:28;;;;;;;8.32;3.63;;;22.00;93.60;;;;;;5006239;28;20111;-73
2021/07/02 10:22:57;;;;;;;3.63;3.33;;;22.50;95.10;;;;;;5005152;28;20025;-77
2021/07/02 10:25:24;;;;;;;4.78;3.53;;;23.00;94.20;;;;;;5003841;28;20048;-76
2021/07/02 10:27:51;;;;;;;3.90;3.53;;;23.30;92.80;;;;;;4973063;28;20125;-75
2021/07/02 10:30:17;;;;;;;4.13;3.78;;;23.60;93.40;;;;;;4992836;28;20126;-77
2021/07/02 10:32:44;;;;;;;3.78;3.40;;;23.30;93.40;;;;;;4991040;28;20554;-77
2021/07/02 10:35:14;;;;;;;3.92;3.60;;;23.30;93.40;;;;;;4976601;28;20031;-77
2021/07/02 10:37:43;;;;;;;6.07;3.67;;;24.30;93.70;;;;;;5001820;28;20086;-77
2021/07/02 10:40:21;;;;;;;4.05;3.75;;;23.70;93.80;;;;;;4997653;28;20023;-78
2021/07/02 10:43:23;;;;;;;6.18;3.83;;;23.30;91.80;;;;;;4977566;28;20022;-78
2021/07/02 10:46:07;;;;;;;5.20;3.42;;;22.70;92.80;;;;;;4979108;28;20038;-76
2021/07/02 10:48:51;;;;;;;3.67;3.30;;;23.00;94.80;;;;;;4991882;28;20087;-76
2021/07/02 10:51:55;;;;;;;3.60;3.30;;;24.30;92.10;;;;;;4991850;28;20189;-76
2021/07/02 10:54:25;;;;;;;3.40;3.08;;;25.40;90.00;;;;;;4990608;28;20022;-76
2021/07/02 10:56:57;;;;;;;3.60;3.35;;;25.20;89.40;;;;;;4991972;28;20027;-77
2021/07/02 10:59:37;;;;;;;3.63;3.33;;;25.40;88.00;;;;;;5002591;28;20535;-77
2021/07/02 11:02:09;;;;;;;4.15;3.75;;;25.70;86.00;;;;;;5009667;28;20026;-77
2021/07/02 11:04:43;;;;;;;4.68;3.35;;;26.30;87.60;;;;;;5009261;28;20030;-75
2021/07/02 11:07:11;;;;;;;4.97;3.25;;;26.10;83.90;;;;;;5008832;28;20026;-77
2021/07/02 11:09:55;;;;;;;4.15;3.75;;;25.60;88.50;;;;;;5007805;28;20080;-76
2021/07/02 11:12:21;;;;;;;4.40;3.60;;;25.70;88.30;;;;;;4991112;28;20022;-76
2021/07/02 11:17:39;;;;;;;4.13;3.80;;;25.30;87.60;;;;;;5008508;28;20030;-75
2021/07/02 11:20:08;;;;;;;3.20;3.00;;;24.90;88.50;;;;;;4988666;28;20080;-76
2021/07/02 11:22:40;;;;;;;4.50;3.30;;;25.20;90.20;;;;;;4988726;28;20022;-76
2021/07/02 11:25:18;;;;;;;5.55;3.78;;;25.60;87.80;;;;;;4989200;28;20120;-74
2021/07/02 11:28:00;;;;;;;3.58;3.22;;;25.80;81.90;;;;;;4988975;28;20025;-76
2021/07/02 11:30:36;;;;;;;;;;;24.80;82.80;;;;;;4991172;28;20523;-77
2021/07/02 11:33:08;;;;;;;3.67;3.42;;;24.90;86.90;;;;;;4977196;28;19906;-77
2021/07/02 11:35:41;;;;;;;4.07;3.55;;;25.90;82.10;;;;;;4995410;28;20080;-77
2021/07/02 11:38:13;;;;;;;3.00;2.80;;;26.10;80.60;;;;;;4994531;28;20404;-76
2021/07/02 11:40:59;;;;;;;3.58;3.28;;;26.50;78.20;;;;;;4992755;28;20019;-75
2021/07/02 11:43:34;;;;;;;3.40;3.20;;;26.30;84.10;;;;;;5003453;28;20475;-76
2021/07/02 11:46:01;;;;;;;5.07;3.33;;;25.60;78.80;;;;;;5003302;28;20018;-77
2021/07/02 11:48:30;;;;;;;3.45;3.15;;;24.90;81.60;;;;;;5011737;28;20046;-75
2021/07/02 11:51:02;;;;;;;3.85;3.55;;;24.60;86.10;;;;;;5010962;28;20022;-76
2021/07/02 11:53:42;;;;;;;4.18;3.65;;;25.00;89.20;;;;;;5011642;28;20032;-77
2021/07/02 11:56:28;;;;;;;3.83;3.53;;;25.00;83.30;;;;;;5011664;28;20097;-76
2021/07/02 11:59:02;;;;;;;3.80;3.50;;;25.80;81.50;;;;;;5011307;28;20022;-76
2021/07/02 12:01:35;;;;;;;3.83;3.53;;;26.50;82.80;;;;;;5010890;28;20014;-77
2021/07/02 12:04:02;;;;;;;3.08;2.83;;;27.10;84.60;;;;;;5011636;28;20025;-77
2021/07/02 12:06:28;;;;;;;3.20;2.92;;;26.60;76.40;;;;;;5011972;28;20037;-75
2021/07/02 12:08:56;;;;;;;3.38;3.17;;;26.90;80.90;;;;;;5010604;28;20022;-76
2021/07/02 12:11:28;;;;;;;3.50;3.20;;;26.50;74.40;;;;;;5011123;28;20388;-76
2021/07/02 12:13:54;;;;;;;4.05;3.35;;;26.30;79.70;;;;;;5011693;28;20109;-74
2021/07/02 12:16:19;;;;;;;3.80;3.50;;;26.90;77.10;;;;;;5012488;28;20439;-75
2021/07/02 12:18:52;;;;;;;6.80;3.58;;;26.20;74.30;;;;;;5011326;28;20035;-77
2021/07/02 12:21:25;;;;;;;4.30;3.28;;;25.80;81.80;;;;;;5010601;28;20441;-76
2021/07/02 12:23:52;;;;;;;4.18;3.40;;;25.80;80.40;;;;;;5011065;28;20072;-76
2021/07/02 12:26:20;;;;;;;4.57;3.55;;;26.60;76.00;;;;;;5010946;28;20088;-76
2021/07/02 12:29:01;;;;;;;3.60;3.30;;;26.80;75.00;;;;;;4993360;28;20050;-76
2021/07/02 12:31:33;;;;;;;3.63;3.33;;;25.80;75.60;;;;;;5012072;28;20077;-77
2021/07/02 12:33:59;;;;;;;4.22;3.28;;;26.20;80.60;;;;;;5013643;28;20022;-77
2021/07/02 12:36:26;;;;;;;3.92;3.63;;;24.50;77.40;;;;;;5011188;28;20030;-77
2021/07/02 12:39:12;;;;;;;3.92;3.63;;;24.70;85.60;;;;;;5010997;28;20083;-77
2021/07/02 12:41:42;;;;;;;4.00;3.70;;;26.20;84.30;;;;;;5009886;28;20471;-77
2021/07/02 12:44:08;;;;;;;4.35;3.40;;;27.00;81.00;;;;;;5010922;28;20527;-78